Time;durP1;ratioP1;P1;durP2;ratioP2;P2;SDS_P1;SDS_P2;PMS_P1;PMS_P2;Temp;Humidity;BMP_temperature;BMP_pressure;BME280_temperature;BME280_humidity;BME280_pressure;Samples;Min_cycle;Max_cycle;Signal;HPM_P1;HPM_P2
2022/11/02 00:03:27;;;;;;;;;;;10.90;99.90;;;9.85;100.00;96267.88;10541444;28;1971;-72
2022/11/02 00:08:30;;;;;;;;;;;10.90;99.90;;;9.85;100.00;96271.38;10536577;28;1668;-73
2022/11/02 00:13:32;;;;;;;;;;;10.90;99.90;;;9.82;100.00;96263.84;10535462;28;1161;-72
2022/11/02 00:18:35;;;;;;;;;;;10.80;99.90;;;9.72;100.00;96267.22;10535522;28;1821;-72
2022/11/02 00:23:38;;;;;;;;;;;10.80;99.90;;;9.71;100.00;96268.31;10538465;28;1906;-76
2022/11/02 00:28:41;;;;;;;;;;;10.80;99.90;;;9.61;100.00;96273.59;10527945;28;1637;-73
2022/11/02 00:33:43;;;;;;;;;;;10.70;99.90;;;9.55;100.00;96280.00;10536681;28;1141;-72
2022/11/02 00:38:46;;;;;;;;;;;10.60;99.90;;;9.50;100.00;96274.56;10528108;28;1686;-74
2022/11/02 00:43:49;;;;;;;;;;;10.60;99.90;;;9.44;100.00;96284.44;10541277;28;1922;-72
2022/11/02 00:48:52;;;;;;;;;;;10.50;99.90;;;9.46;100.00;96286.88;10529672;28;1656;-73
2022/11/02 00:53:55;;;;;;;;;;;10.50;99.90;;;9.56;100.00;96284.28;10529524;28;1969;-73
2022/11/02 00:58:58;;;;;;;;;;;10.50;99.90;;;9.47;100.00;96283.09;10519901;28;1797;-73
2022/11/02 01:04:08;;;;;;;;;;;10.50;99.90;;;9.39;100.00;96286.25;10533881;28;1984;-73
2022/11/02 01:09:11;;;;;;;;;;;10.40;99.90;;;9.39;100.00;96294.31;10531901;28;1660;-73
2022/11/02 01:14:15;;;;;;;;;;;10.40;99.90;;;9.36;100.00;96298.31;10535099;28;1001;-71
2022/11/02 01:19:17;;;;;;;;;;;10.40;99.90;;;9.33;100.00;96292.63;10531984;28;1663;-71
2022/11/02 01:24:20;;;;;;;;;;;10.40;99.90;;;9.20;100.00;96294.66;10534001;28;1914;-72
2022/11/02 01:29:23;;;;;;;;;;;10.30;99.90;;;9.21;100.00;96298.94;10535483;28;1672;-71
2022/11/02 01:34:27;;;;;;;;;;;10.20;99.90;;;9.21;100.00;96307.00;10541019;28;1454;-72
2022/11/02 01:39:30;;;;;;;;;;;10.20;99.90;;;9.23;100.00;96293.34;10540090;28;1917;-72
2022/11/02 01:44:33;;;;;;;;;;;10.20;99.90;;;9.42;100.00;96307.25;10534292;28;1612;-71
2022/11/02 01:49:36;;;;;;;;;;;10.30;99.90;;;9.73;100.00;96309.16;10539157;28;1316;-71
2022/11/02 01:54:39;;;;;;;;;;;10.40;99.90;;;10.06;100.00;96296.53;10535648;28;1554;-71
2022/11/02 01:59:42;;;;;;;;;;;10.70;99.90;;;10.18;100.00;96307.06;10534950;28;1905;-72
2022/11/02 02:04:45;;;;;;;;;;;10.90;99.90;;;10.12;100.00;96303.56;10540298;28;840;-71
2022/11/02 02:09:48;;;;;;;;;;;11.00;99.90;;;9.92;100.00;96287.25;10538446;28;1656;-71
2022/11/02 02:14:53;;;;;;;;;;;11.00;99.90;;;9.78;100.00;96294.94;10535436;28;1612;-74
2022/11/02 02:19:56;;;;;;;;;;;10.90;99.90;;;9.63;100.00;96298.31;10536066;28;1969;-71
2022/11/02 02:24:58;;;;;;;;;;;10.80;99.90;;;9.61;100.00;96308.50;10531164;28;1651;-72
2022/11/02 02:30:02;;;;;;;;;;;10.60;99.90;;;9.85;100.00;96316.22;10534630;28;1481;-72
2022/11/02 02:35:05;;;;;;;;;;;10.70;99.90;;;9.99;100.00;96307.50;10537916;28;1477;-73
2022/11/02 02:40:08;;;;;;;;;;;10.90;99.90;;;10.11;100.00;96315.34;10537682;28;1963;-72
2022/11/02 02:45:10;;;;;;;;;;;10.80;99.90;;;10.15;100.00;96316.47;10539753;28;1683;-76
2022/11/02 02:50:13;;;;;;;;;;;11.00;99.90;;;10.28;100.00;96326.78;10541182;28;1232;-75
2022/11/02 02:55:16;;;;;;;;;;;11.00;99.90;;;10.51;100.00;96324.81;10534760;28;1793;-71
2022/11/02 03:00:18;;;;;;;;;;;11.20;99.90;;;10.63;100.00;96321.94;10541861;28;1934;-71
2022/11/02 03:05:21;;;;;;;;;;;11.30;99.90;;;10.79;100.00;96316.34;10537888;28;1709;-72
2022/11/02 03:10:24;;;;;;;;;;;11.50;99.90;;;10.85;100.00;96319.88;10542968;28;1114;-74
2022/11/02 03:15:27;;;;;;;;;;;11.50;99.90;;;10.97;100.00;96333.13;10537445;28;1820;-73
2022/11/02 03:20:29;;;;;;;;;;;11.70;99.90;;;11.03;100.00;96329.38;10538578;28;1897;-71
2022/11/02 03:25:32;;;;;;;;;;;11.80;99.90;;;11.09;100.00;96336.41;10530645;28;1652;-72
2022/11/02 03:30:34;;;;;;;;;;;11.80;99.90;;;11.20;100.00;96338.06;10530189;28;1720;-70
2022/11/02 03:35:37;;;;;;;;;;;12.00;99.90;;;11.27;100.00;96343.22;10536741;28;1153;-73
2022/11/02 03:40:40;;;;;;;;;;;12.00;99.90;;;11.32;100.00;96346.72;10531328;28;1909;-71
2022/11/02 03:45:42;;;;;;;;;;;12.10;99.90;;;11.28;100.00;96351.00;10538038;28;1109;-73
2022/11/02 03:50:45;;;;;;;;;;;12.10;99.90;;;11.22;100.00;96356.63;10535188;28;1715;-73
2022/11/02 03:55:48;;;;;;;;;;;12.10;99.90;;;10.93;100.00;96359.72;10527081;28;1639;-72
2022/11/02 04:00:51;;;;;;;;;;;12.00;99.90;;;10.80;100.00;96360.19;10529263;28;1971;-71
2022/11/02 04:05:54;;;;;;;;;;;11.80;99.90;;;10.61;100.00;96362.50;10535077;28;1628;-71
2022/11/02 04:16:17;;;;;;;;;;;11.50;99.90;;;10.25;100.00;96374.88;10530677;28;1687;-72
2022/11/02 04:21:25;;;;;;;;;;;11.40;99.90;;;10.15;100.00;96367.50;10528535;28;1910;-72
2022/11/02 04:26:27;;;;;;;;;;;11.20;99.90;;;10.01;100.00;96366.31;10534833;28;1584;-71
2022/11/02 04:31:30;;;;;;;;;;;11.10;99.90;;;9.92;100.00;96370.50;10530302;28;1679;-73
2022/11/02 04:36:32;;;;;;;;;;;10.90;99.90;;;9.93;100.00;96366.78;10533749;28;1552;-74
2022/11/02 04:41:45;;;;;;;;;;;10.90;99.90;;;9.88;100.00;96358.69;10534954;28;1899;-72
2022/11/02 04:46:48;;;;;;;;;;;10.90;99.90;;;9.83;100.00;96351.38;10533101;28;1649;-72
2022/11/02 04:51:51;;;;;;;;;;;10.90;99.90;;;9.86;100.00;96353.56;10534934;28;1328;-72
2022/11/02 04:56:54;;;;;;;;;;;10.90;99.90;;;9.78;100.00;96353.19;10531865;28;1730;-73
2022/11/02 05:01:57;;;;;;;;;;;10.80;99.90;;;9.77;100.00;96356.94;10531074;28;1989;-72
2022/11/02 05:07:00;;;;;;;;;;;10.70;99.90;;;9.77;100.00;96365.00;10540581;28;1727;-72
2022/11/02 05:12:03;;;;;;;;;;;10.70;99.90;;;9.71;100.00;96359.56;10541884;28;1157;-72
2022/11/02 05:17:06;;;;;;;;;;;10.70;99.90;;;9.72;100.00;96369.25;10539021;28;1648;-73
2022/11/02 05:22:09;;;;;;;;;;;10.70;99.90;;;9.79;100.00;96362.88;10542720;28;1967;-70
2022/11/02 05:27:12;;;;;;;;;;;10.70;99.90;;;9.94;100.00;96365.72;10531745;28;1711;-72
2022/11/02 05:32:15;;;;;;;;;;;10.80;99.90;;;9.95;100.00;96357.41;10540979;28;1122;-72
2022/11/02 05:37:18;;;;;;;;;;;10.90;99.90;;;9.99;100.00;96355.03;10541511;28;1691;-72
2022/11/02 05:42:21;;;;;;;;;;;10.90;99.90;;;9.98;100.00;96361.44;10535619;28;1890;-72
2022/11/02 05:47:24;;;;;;;;;;;10.90;99.90;;;9.90;100.00;96361.91;10542880;28;1661;-72
2022/11/02 05:52:26;;;;;;;;;;;10.90;99.90;;;9.83;100.00;96361.31;10546214;28;843;-71
2022/11/02 05:57:29;;;;;;;;;;;10.90;99.90;;;9.81;100.00;96368.81;10547699;28;1684;-72
2022/11/02 06:02:32;;;;;;;;;;;10.90;99.90;;;9.83;100.00;96377.41;10547835;28;1910;-74
2022/11/02 06:07:34;;;;;;;;;;;10.80;99.90;;;9.82;100.00;96390.03;10539165;28;1632;-73
2022/11/02 06:12:37;;;;;;;;;;;10.90;99.90;;;9.78;100.00;96396.97;10541119;28;847;-72
2022/11/02 06:17:40;;;;;;;;;;;10.80;99.90;;;9.73;100.00;96405.78;10532966;28;1726;-71
2022/11/02 06:22:42;;;;;;;;;;;10.70;99.90;;;9.69;100.00;96401.97;10540345;28;1976;-71
2022/11/02 06:27:45;;;;;;;;;;;10.70;99.90;;;9.70;100.00;96417.03;10533432;28;1596;-71
2022/11/02 06:32:48;;;;;;;;;;;10.70;99.90;;;9.79;100.00;96414.69;10538679;28;1113;-71
2022/11/02 06:37:51;;;;;;;;;;;10.80;99.90;;;9.81;100.00;96417.16;10538276;28;1711;-72
2022/11/02 06:42:54;;;;;;;;;;;10.70;99.90;;;9.90;100.00;96423.66;10538136;28;1910;-72
2022/11/02 06:48:16;;;;;;;;;;;10.80;99.90;;;9.92;100.00;96434.97;10535405;28;1681;-72
2022/11/02 06:53:19;;;;;;;;;;;10.80;99.90;;;9.93;100.00;96425.88;10533649;28;1828;-72
2022/11/02 06:58:22;;;;;;;;;;;10.80;99.90;;;9.99;100.00;96438.28;10533174;28;1457;-72
2022/11/02 07:03:24;;;;;;;;;;;10.90;99.90;;;10.02;100.00;96440.44;10538401;28;1910;-71
2022/11/02 07:08:27;;;;;;;;;;;10.90;99.90;;;10.11;100.00;96438.91;10536365;28;1640;-73
2022/11/02 07:13:30;;;;;;;;;;;11.00;99.90;;;10.14;100.00;96432.25;10538102;28;1424;-73
2022/11/02 07:18:32;;;;;;;;;;;11.00;99.90;;;10.19;100.00;96435.78;10536618;28;1715;-71
2022/11/02 07:23:35;;;;;;;;;;;11.10;99.90;;;10.36;100.00;96445.63;10528310;28;1914;-71
2022/11/02 07:28:38;;;;;;;;;;;11.20;99.90;;;10.45;100.00;96446.78;10535386;28;1532;-72
2022/11/02 07:33:41;;;;;;;;;;;11.20;99.90;;;10.54;100.00;96442.56;10537891;28;1085;-72
2022/11/02 07:38:44;;;;;;;;;;;11.30;99.90;;;10.71;100.00;96443.22;10531742;28;1656;-72
2022/11/02 07:43:46;;;;;;;;;;;11.50;99.90;;;10.85;100.00;96442.78;10529970;28;1906;-73
2022/11/02 07:48:49;;;;;;;;;;;11.60;99.90;;;11.13;100.00;96441.59;10536454;28;1156;-72
2022/11/02 07:53:52;;;;;;;;;;;11.70;99.90;;;11.25;100.00;96432.25;10531459;28;1608;-72
2022/11/02 07:58:55;;;;;;;;;;;11.90;99.90;;;11.44;100.00;96432.63;10524098;28;1449;-72
2022/11/02 08:03:57;;;;;;;;;;;12.10;99.90;;;11.86;100.00;96448.69;10535986;28;1984;-76
2022/11/02 08:09:01;;;;;;;;;;;12.30;99.90;;;12.35;100.00;96444.78;10536653;28;1660;-76
2022/11/02 08:14:04;;;;;;;;;;;12.70;99.90;;;12.82;100.00;96444.50;10536817;28;1065;-72
2022/11/02 08:19:07;;;;;;;;;;;13.10;99.90;;;13.34;100.00;96429.03;10522858;28;1656;-72
2022/11/02 08:24:13;;;;;;;;;;;13.60;99.90;;;13.55;100.00;96429.75;10531734;28;1902;-71
2022/11/02 08:29:16;;;;;;;;;;;14.00;99.90;;;13.58;100.00;96431.94;10531471;28;1472;-73
2022/11/02 08:34:18;;;;;;;;;;;14.20;99.90;;;13.71;100.00;96434.03;10535921;28;2159;-72
2022/11/02 08:39:21;;;;;;;;;;;14.30;99.90;;;13.80;100.00;96443.16;10535012;28;1573;-72
2022/11/02 08:44:24;;;;;;;;;;;14.40;99.90;;;13.87;100.00;96432.88;10542354;28;1990;-71
2022/11/02 08:49:27;;;;;;;;;;;14.50;99.90;;;14.24;100.00;96436.97;10538636;28;1628;-72
2022/11/02 08:54:29;;;;;;;;;;;14.70;99.90;;;14.33;100.00;96435.31;10541298;28;1651;-71
2022/11/02 08:59:32;;;;;;;;;;;14.90;99.90;;;14.60;100.00;96432.97;10565073;27;1472;-72
2022/11/02 09:04:35;;;;;;;;;;;15.10;99.90;;;14.51;100.00;96431.16;10503201;28;1914;-73
2022/11/02 09:09:38;;;;;;;;;;;15.10;99.90;;;14.83;100.00;96433.31;10548769;28;1549;-72
2022/11/02 09:14:41;;;;;;;;;;;15.30;99.90;;;15.40;100.00;96434.38;10543186;28;1660;-72
2022/11/02 09:19:44;;;;;;;;;;;15.70;99.90;;;15.16;100.00;96434.34;10549226;28;1130;-72
2022/11/02 09:24:47;;;;;;;;;;;15.80;99.90;;;15.54;100.00;96443.44;10546368;28;1910;-72
2022/11/02 09:29:49;;;;;;;;;;;16.00;99.90;;;15.45;100.00;96447.84;10541973;28;1435;-75
2022/11/02 09:34:53;;;;;;;;;;;16.20;99.90;;;15.39;100.00;96454.41;10541903;28;1454;-72
2022/11/02 09:39:55;;;;;;;;;;;16.10;99.90;;;15.22;100.00;96454.88;10541773;28;1220;-71
2022/11/02 09:44:58;;;;;;;;;;;15.90;99.90;;;15.07;100.00;96458.53;10543871;28;1914;-74
2022/11/02 09:50:01;;;;;;;;;;;15.90;99.90;;;15.27;97.19;96457.53;10544905;28;1121;-72
2022/11/02 09:55:04;;;;;;;;;;;15.90;99.90;;;15.10;98.18;96462.56;10538662;28;1731;-72
2022/11/02 10:00:07;;;;;;;;;;;15.90;99.90;;;14.83;100.00;96460.38;10541895;28;1486;-72
2022/11/02 10:05:10;;;;;;;;;;;15.70;99.90;;;14.54;100.00;96458.44;10543977;28;1914;-72
2022/11/02 10:10:12;;;;;;;;;;;15.60;99.90;;;14.11;100.00;96460.03;10540881;28;1687;-71
2022/11/02 10:15:15;;;;;;;;;;;15.10;99.90;;;13.87;100.00;96469.88;10533471;28;1664;-72
2022/11/02 10:20:18;;;;;;;;;;;14.80;99.90;;;13.96;100.00;96469.03;10541312;28;1082;-72
2022/11/02 10:25:21;;;;;;;;;;;14.80;99.90;;;14.19;100.00;96477.59;10538502;28;1976;-72
2022/11/02 10:30:24;;;;;;;;;;;14.80;99.90;;;14.71;100.00;96468.88;10537743;28;1537;-72
2022/11/02 10:35:26;;;;;;;;;;;15.10;99.90;;;14.83;99.59;96477.44;10540157;28;1501;-73
2022/11/02 10:40:49;;;;;;;;;;;15.50;99.90;;;15.07;96.88;96477.47;10535149;28;1118;-72
2022/11/02 10:45:52;;;;;;;;;;;15.70;99.90;;;14.86;98.00;96476.06;10537886;28;1914;-72
2022/11/02 10:50:55;;;;;;;;;;;15.70;99.90;;;15.05;94.93;96468.03;10537468;28;2393;-72
2022/11/02 10:55:57;;;;;;;;;;;15.70;99.90;;;15.57;89.65;96469.13;10537426;28;1573;-72
2022/11/02 11:01:00;;;;;;;;;;;16.00;99.90;;;15.82;88.41;96462.63;10536357;28;1444;-72
2022/11/02 11:06:02;;;;;;;;;;;16.20;99.90;;;15.43;88.47;96458.19;10538131;28;1981;-72
2022/11/02 11:11:08;;;;;;;;;;;16.20;99.90;;;15.76;85.81;96455.66;10537513;28;1770;-73
2022/11/02 11:16:11;;;;;;;;;;;16.20;99.90;;;15.73;83.20;96456.25;10536632;28;1620;-74
2022/11/02 11:21:21;;;;;;;;;;;16.30;99.90;;;15.77;83.83;96446.44;10528869;28;1125;-72
2022/11/02 11:26:24;;;;;;;;;;;16.30;99.90;;;15.90;83.87;96451.13;10533916;28;1970;-71
2022/11/02 11:31:26;;;;;;;;;;;16.40;99.90;;;15.82;85.78;96451.78;10531760;28;1817;-72
2022/11/02 11:36:29;;;;;;;;;;;16.50;99.90;;;15.64;88.13;96459.56;10532688;28;1430;-72
2022/11/02 11:41:33;;;;;;;;;;;16.40;99.90;;;15.48;90.74;96454.59;10536777;28;1336;-73
2022/11/02 11:46:35;;;;;;;;;;;16.20;99.90;;;15.48;89.44;96452.69;10529255;28;1969;-73
2022/11/02 11:51:38;;;;;;;;;;;16.20;99.90;;;15.03;91.49;96446.66;10537321;28;780;-72
2022/11/02 11:56:41;;;;;;;;;;;16.00;99.90;;;14.97;92.75;96453.22;10530042;28;1675;-72
2022/11/02 12:01:45;;;;;;;;;;;15.80;99.90;;;14.90;92.28;96452.75;10532231;28;1270;-73
2022/11/02 12:06:48;;;;;;;;;;;15.70;99.90;;;14.83;94.11;96447.66;10536601;28;1914;-72
2022/11/02 12:11:51;;;;;;;;;;;15.70;99.90;;;14.82;95.80;96437.09;10536978;28;1136;-72
2022/11/02 12:16:54;;;;;;;;;;;15.70;99.90;;;14.90;94.82;96441.13;10536252;28;1707;-72
2022/11/02 12:21:56;;;;;;;;;;;15.60;99.90;;;14.76;94.74;96439.06;10538987;28;1722;-74
2022/11/02 12:26:59;;;;;;;;;;;15.60;99.90;;;14.53;97.98;96440.59;10535792;28;1971;-75
2022/11/02 12:32:02;;;;;;;;;;;15.40;99.90;;;14.75;97.13;96436.63;10537851;28;1066;-72
2022/11/02 12:37:05;;;;;;;;;;;15.40;99.90;;;14.59;96.87;96436.75;10537648;28;1636;-72
2022/11/02 12:42:27;;;;;;;;;;;15.40;99.90;;;14.72;97.58;96434.50;10537297;28;1980;-72
2022/11/02 12:47:40;;;;;;;;;;;15.40;99.90;;;14.79;96.43;96427.66;10535938;28;1676;-76
2022/11/02 12:52:43;;;;;;;;;;;15.50;99.90;;;14.91;95.34;96424.59;10535079;28;920;-73
2022/11/02 12:57:46;;;;;;;;;;;15.50;99.90;;;14.79;90.26;96422.25;10528337;28;1640;-72
2022/11/02 13:02:49;;;;;;;;;;;15.50;99.90;;;14.62;90.92;96415.63;10533882;28;1910;-72
2022/11/02 13:07:59;;;;;;;;;;;15.40;99.90;;;14.87;90.98;96407.28;10532386;28;1672;-72
2022/11/02 13:13:01;;;;;;;;;;;15.40;99.90;;;14.97;89.76;96407.19;10534732;28;1259;-71
2022/11/02 13:18:05;;;;;;;;;;;15.60;99.90;;;14.80;91.16;96407.63;10530644;28;1679;-71
2022/11/02 13:23:08;;;;;;;;;;;15.60;99.90;;;14.86;89.00;96416.50;10527875;28;1914;-73
2022/11/02 13:28:11;;;;;;;;;;;15.60;99.90;;;14.49;89.39;96407.06;10536381;28;1548;-72
2022/11/02 13:33:25;;;;;;;;;;;15.40;99.90;;;14.50;89.39;96402.47;10540103;28;1138;-72
2022/11/02 13:38:27;;;;;;;;;;;15.30;99.90;;;14.45;91.08;96400.59;10533929;28;1719;-72
2022/11/02 13:43:30;;;;;;;;;;;15.20;99.90;;;14.40;90.06;96407.94;10541240;28;1961;-72
2022/11/02 13:48:33;;;;;;;;;;;15.20;99.90;;;14.37;90.49;96398.47;10535002;28;1097;-77
2022/11/02 13:53:36;;;;;;;;;;;15.10;99.90;;;14.51;91.53;96402.19;10533049;28;1679;-72
2022/11/02 13:58:39;;;;;;;;;;;15.10;99.90;;;14.44;90.17;96404.41;10535735;28;1521;-73
2022/11/02 14:03:42;;;;;;;;;;;15.30;99.90;;;14.45;90.50;96400.59;10539722;28;1910;-71
2022/11/02 14:08:44;;;;;;;;;;;15.20;99.90;;;14.41;91.39;96412.25;10531705;28;1668;-72
2022/11/02 14:13:48;;;;;;;;;;;15.20;99.90;;;14.24;92.98;96404.53;10537638;28;1687;-73
2022/11/02 14:18:50;;;;;;;;;;;15.00;99.90;;;14.12;94.39;96401.34;10542006;28;1117;-72
2022/11/02 14:23:54;;;;;;;;;;;15.00;99.90;;;14.12;95.74;96407.56;10532290;28;1973;-72
2022/11/02 14:28:57;;;;;;;;;;;14.90;99.90;;;14.09;96.43;96391.13;10535082;28;1512;-75
2022/11/02 14:33:59;;;;;;;;;;;14.90;99.90;;;13.88;98.02;96396.66;10539396;28;1124;-77
2022/11/02 14:39:02;;;;;;;;;;;14.80;99.90;;;13.75;100.00;96389.16;10530745;28;1679;-72
2022/11/02 14:44:09;;;;;;;;;;;14.70;99.90;;;13.53;100.00;96384.94;10538635;28;1969;-72
2022/11/02 14:49:12;;;;;;;;;;;14.60;99.90;;;13.56;100.00;96383.59;10541033;28;1177;-72
2022/11/02 14:54:15;;;;;;;;;;;14.40;99.90;;;13.39;100.00;96385.81;10536696;28;1651;-72
2022/11/02 14:59:18;;;;;;;;;;;14.40;99.90;;;13.11;100.00;96382.66;10535630;28;1508;-73
2022/11/02 15:04:20;;;;;;;;;;;14.30;99.90;;;12.90;100.00;96373.78;10536132;28;1906;-72
2022/11/02 15:09:23;;;;;;;;;;;14.10;99.90;;;12.72;100.00;96385.13;10539131;28;1624;-71
2022/11/02 15:14:26;;;;;;;;;;;13.80;99.90;;;12.56;100.00;96376.28;10538717;28;1668;-72
2022/11/02 15:19:29;;;;;;;;;;;13.70;99.90;;;12.39;100.00;96378.44;10542957;28;1091;-74
2022/11/02 15:24:31;;;;;;;;;;;13.50;99.90;;;12.08;100.00;96370.31;10550666;28;1929;-72
2022/11/02 15:29:35;;;;;;;;;;;13.30;99.90;;;11.89;100.00;96370.03;10541338;28;1417;-71
2022/11/02 15:34:38;;;;;;;;;;;13.10;99.90;;;11.76;100.00;96372.41;10554890;28;1157;-72
2022/11/02 15:39:41;;;;;;;;;;;12.90;99.90;;;11.59;100.00;96369.97;10537065;28;1723;-73
2022/11/02 15:44:43;;;;;;;;;;;12.80;99.90;;;11.49;100.00;96365.34;10538019;28;1923;-72
2022/11/02 15:49:46;;;;;;;;;;;12.70;99.90;;;11.28;100.00;96372.53;10537951;28;1169;-71
2022/11/02 15:54:49;;;;;;;;;;;12.60;99.90;;;11.20;100.00;96381.13;10531793;28;1568;-72
2022/11/02 15:59:52;;;;;;;;;;;12.40;99.90;;;11.13;100.00;96375.16;10531656;28;1420;-73
2022/11/02 16:04:55;;;;;;;;;;;12.30;99.90;;;10.99;100.00;96376.69;10537339;28;1961;-75
2022/11/02 16:09:58;;;;;;;;;;;12.30;99.90;;;10.98;100.00;96380.47;10529187;28;1667;-77
2022/11/02 16:15:03;;;;;;;;;;;12.10;99.90;;;10.77;100.00;96372.28;10535041;28;1648;-73
2022/11/02 16:20:05;;;;;;;;;;;12.00;99.90;;;10.70;100.00;96377.09;10535415;28;1110;-72
2022/11/02 16:25:08;;;;;;;;;;;11.90;99.90;;;10.66;100.00;96375.97;10531375;28;1910;-72
2022/11/02 16:30:11;;;;;;;;;;;11.80;99.90;;;10.46;100.00;96367.78;10532549;28;1489;-72
2022/11/02 16:35:14;;;;;;;;;;;11.70;99.90;;;10.44;100.00;96369.91;10535044;28;1180;-72
2022/11/02 16:40:16;;;;;;;;;;;11.60;99.90;;;10.37;100.00;96372.81;10529393;28;1727;-72
2022/11/02 16:45:19;;;;;;;;;;;11.60;99.90;;;10.11;100.00;96385.19;10533319;28;1969;-70
2022/11/02 16:50:22;;;;;;;;;;;11.40;99.90;;;10.01;100.00;96385.13;10535056;28;833;-72
2022/11/02 16:55:24;;;;;;;;;;;11.20;99.90;;;9.97;100.00;96381.31;10532979;28;1557;-73
2022/11/02 17:00:27;;;;;;;;;;;11.20;99.90;;;9.85;100.00;96386.03;10533766;28;1445;-71
2022/11/02 17:05:30;;;;;;;;;;;11.00;99.90;;;9.74;100.00;96385.94;10543646;28;1947;-72
2022/11/02 17:10:32;;;;;;;;;;;11.00;99.90;;;9.70;100.00;96378.63;10545059;28;1141;-71
2022/11/02 17:15:36;;;;;;;;;;;10.90;99.90;;;9.59;100.00;96391.13;10537183;28;1573;-72
2022/11/02 17:20:38;;;;;;;;;;;10.80;99.90;;;9.55;100.00;96391.91;10542295;28;1175;-71
2022/11/02 17:25:41;;;;;;;;;;;10.80;99.90;;;9.53;100.00;96388.63;10540356;28;1985;-73
2022/11/02 17:30:44;;;;;;;;;;;10.70;99.90;;;9.42;100.00;96391.22;10536850;28;1465;-71
2022/11/02 17:35:47;;;;;;;;;;;10.60;99.90;;;9.35;100.00;96397.81;10542118;28;1473;-72
2022/11/02 17:40:51;;;;;;;;;;;10.70;99.90;;;9.41;100.00;96400.31;10542941;28;1148;-72
2022/11/02 17:45:53;;;;;;;;;;;10.60;99.90;;;9.39;100.00;96389.03;10541235;28;1909;-74
2022/11/02 17:50:56;;;;;;;;;;;10.50;99.90;;;9.22;100.00;96393.66;10542615;28;1172;-75
2022/11/02 17:55:59;;;;;;;;;;;10.30;99.90;;;9.12;100.00;96402.38;10535012;28;1675;-73
2022/11/02 18:01:02;;;;;;;;;;;10.30;99.90;;;9.08;100.00;96395.06;10536410;28;1449;-72
2022/11/02 18:06:05;;;;;;;;;;;10.20;99.90;;;8.94;100.00;96392.75;10540451;28;1976;-73
2022/11/02 18:11:08;;;;;;;;;;;10.20;99.90;;;8.88;100.00;96396.44;10548002;28;1110;-72
2022/11/02 18:16:12;;;;;;;;;;;10.00;99.90;;;8.80;100.00;96390.69;10537545;28;1660;-72
2022/11/02 18:21:21;;;;;;;;;;;10.00;99.90;;;8.79;100.00;96389.06;10505372;28;916;-72
2022/11/02 18:26:25;;;;;;;;;;;9.90;99.90;;;8.80;100.00;96385.34;10531223;28;2017;-71
2022/11/02 18:31:27;;;;;;;;;;;10.00;99.90;;;8.83;100.00;96374.09;10541227;28;1660;-72
2022/11/02 18:36:30;;;;;;;;;;;10.00;99.90;;;8.84;100.00;96370.34;10533239;28;1382;-71
2022/11/02 18:41:33;;;;;;;;;;;9.90;99.90;;;8.87;100.00;96353.78;10540536;28;1192;-71
2022/11/02 18:46:36;;;;;;;;;;;10.00;99.90;;;8.96;100.00;96346.94;10539256;28;1917;-72
2022/11/02 18:51:41;;;;;;;;;;;10.00;99.90;;;8.94;100.00;96330.28;10539914;28;1196;-74
2022/11/02 18:56:45;;;;;;;;;;;10.10;99.90;;;8.81;100.00;96327.97;10530689;28;1664;-72
2022/11/02 19:01:47;;;;;;;;;;;9.90;99.90;;;8.71;100.00;96320.59;10570311;27;1526;-73
2022/11/02 19:12:15;;;;;;;;;;;9.80;99.90;;;8.49;100.00;96307.19;10537906;28;1157;-72
2022/11/02 19:17:18;;;;;;;;;;;9.70;99.90;;;8.40;100.00;96311.34;10537530;28;1651;-72
2022/11/02 19:22:20;;;;;;;;;;;9.60;99.90;;;8.42;100.00;96311.91;10535816;28;1687;-72
2022/11/02 19:27:23;;;;;;;;;;;9.60;99.90;;;8.42;100.00;96306.56;10534990;28;1917;-74
2022/11/02 19:32:25;;;;;;;;;;;9.60;99.90;;;8.39;100.00;96305.16;10538489;28;1180;-72
2022/11/02 19:37:28;;;;;;;;;;;9.50;99.90;;;8.56;100.00;96305.13;10536605;28;1699;-73
2022/11/02 19:42:36;;;;;;;;;;;9.50;99.90;;;8.47;100.00;96298.59;10537089;28;1429;-73
2022/11/02 19:47:38;;;;;;;;;;;9.60;99.90;;;8.55;100.00;96302.72;10534633;28;1964;-72
2022/11/02 19:52:41;;;;;;;;;;;9.60;99.90;;;8.43;100.00;96294.78;10533947;28;1659;-75
2022/11/02 19:57:44;;;;;;;;;;;9.50;99.90;;;8.33;100.00;96281.19;10527216;28;1543;-75
2022/11/02 20:02:47;;;;;;;;;;;9.50;99.90;;;8.28;100.00;96273.91;10536222;28;1157;-73
2022/11/02 20:07:50;;;;;;;;;;;9.40;99.90;;;8.23;100.00;96273.03;10530203;28;1977;-71
2022/11/02 20:12:52;;;;;;;;;;;9.40;99.90;;;8.20;100.00;96268.16;10536584;28;959;-72
2022/11/02 20:17:57;;;;;;;;;;;;;;;8.13;100.00;96262.97;10529343;28;1675;-73
2022/11/02 20:23:20;;;;;;;;;;;9.20;99.90;;;8.00;100.00;96274.03;10536181;28;1019;-72
2022/11/02 20:28:23;;;;;;;;;;;9.10;99.90;;;7.94;100.00;96270.47;10530025;28;1977;-71
2022/11/02 20:33:29;;;;;;;;;;;;;;;7.99;100.00;96265.19;10536616;28;1172;-72
2022/11/02 20:38:33;;;;;;;;;;;;;;;8.01;100.00;96265.75;10528696;28;1690;-72
2022/11/02 20:43:36;;;;;;;;;;;;;;;7.97;100.00;96259.28;10535736;28;1354;-72
2022/11/02 20:48:39;;;;;;;;;;;;;;;8.06;100.00;96256.97;10526981;28;1978;-72
2022/11/02 20:53:43;;;;;;;;;;;;;;;8.16;100.00;96256.34;10535033;28;1047;-72
2022/11/02 20:58:46;;;;;;;;;;;;;;;8.09;100.00;96246.59;10527786;28;1687;-72
2022/11/02 21:03:57;;;;;;;;;;;;;;;8.02;100.00;96245.97;10536413;28;1155;-70
2022/11/02 21:09:00;;;;;;;;;;;;;;;7.96;100.00;96248.81;10532277;28;1921;-71
2022/11/02 21:14:05;;;;;;;;;;;;;;;8.00;100.00;96250.75;10533464;28;1632;-72
2022/11/02 21:19:08;;;;;;;;;;;;;;;7.99;100.00;96238.41;10537534;28;1145;-70
2022/11/02 21:24:11;;;;;;;;;;;;;;;7.88;100.00;96249.22;10537622;28;1712;-72
2022/11/02 21:29:15;;;;;;;;;;;;;;;7.91;100.00;96246.06;10530162;28;1468;-72
2022/11/02 21:34:17;;;;;;;;;;;8.90;99.90;;;7.81;100.00;96244.03;10535320;28;1152;-72
2022/11/02 21:39:20;;;;;;;;;;;9.00;99.90;;;7.74;100.00;96240.72;10524154;28;1644;-72
2022/11/02 21:44:22;;;;;;;;;;;8.90;99.90;;;7.69;100.00;96240.63;10531266;28;1909;-74
2022/11/02 21:49:25;;;;;;;;;;;8.80;99.90;;;7.62;100.00;96239.97;10541070;28;1200;-73
2022/11/02 21:54:28;;;;;;;;;;;;;;;7.59;100.00;96235.94;10540722;28;1628;-71
2022/11/02 21:59:32;;;;;;;;;;;;;;;7.68;100.00;96222.94;10534361;28;1397;-71
2022/11/02 22:04:35;;;;;;;;;;;;;;;7.76;100.00;96220.69;10540777;28;1902;-71
2022/11/02 22:09:38;;;;;;;;;;;;;;;7.76;100.00;96219.84;10539397;28;1624;-72
2022/11/02 22:14:42;;;;;;;;;;;;;;;7.70;100.00;96224.34;10539521;28;1651;-72
2022/11/02 22:19:46;;;;;;;;;;;;;;;7.67;100.00;96210.63;10539825;28;1134;-71
2022/11/02 22:24:49;;;;;;;;;;;;;;;7.54;100.00;96212.59;10535022;28;1910;-71
2022/11/02 22:29:52;;;;;;;;;;;;;;;7.48;100.00;96207.38;10534139;28;1515;-72
2022/11/02 22:34:56;;;;;;;;;;;;;;;7.43;100.00;96210.78;10539776;28;1142;-79
2022/11/02 22:39:59;;;;;;;;;;;;;;;7.44;100.00;96201.69;10537809;28;1699;-72
2022/11/02 22:45:03;;;;;;;;;;;;;;;7.40;100.00;96189.88;10538215;28;1957;-72
2022/11/02 22:50:06;;;;;;;;;;;;;;;7.40;100.00;96205.94;10539904;28;1169;-73
2022/11/02 22:55:10;;;;;;;;;;;;;;;7.34;100.00;96203.44;10534781;28;1553;-71
2022/11/02 23:00:13;;;;;;;;;;;;;;;7.38;100.00;96200.03;10533455;28;1394;-73
2022/11/02 23:05:16;;;;;;;;;;;;;;;7.36;100.00;96191.41;10539511;28;1975;-72
2022/11/02 23:15:36;;;;;;;;;;;;;;;7.45;100.00;96179.28;10539866;28;1122;-71
2022/11/02 23:20:40;;;;;;;;;;;;;;;7.31;100.00;96172.59;10533679;28;1655;-74
2022/11/02 23:25:43;;;;;;;;;;;;;;;7.35;100.00;96172.94;10538719;28;1969;-72
2022/11/02 23:36:14;;;;;;;;;;;8.20;99.90;;;7.15;100.00;96165.41;10533385;28;1528;-73
2022/11/02 23:41:16;;;;;;;;;;;8.30;99.90;;;7.09;100.00;96164.50;10539038;28;1126;-71
2022/11/02 23:46:19;;;;;;;;;;;8.20;99.90;;;7.03;100.00;96166.28;10532726;28;1964;-73
2022/11/02 23:56:45;;;;;;;;;;;8.10;99.90;;;7.10;100.00;96158.09;10538223;28;1168;-71
